sensor_id;sensor_type;location;lat;lon;timestamp;temperature;humidity
15554;DHT22;7878;44.632;10.942;2022-12-01T00:00:55;9.90;97.70
15554;DHT22;7878;44.632;10.942;2022-12-01T00:03:21;9.90;97.60
15554;DHT22;7878;44.632;10.942;2022-12-01T00:05:47;9.90;97.70
15554;DHT22;7878;44.632;10.942;2022-12-01T00:08:12;9.90;97.70
15554;DHT22;7878;44.632;10.942;2022-12-01T00:10:38;9.90;97.70
15554;DHT22;7878;44.632;10.942;2022-12-01T00:13:05;9.90;97.70
15554;DHT22;7878;44.632;10.942;2022-12-01T00:15:33;9.90;97.70
15554;DHT22;7878;44.632;10.942;2022-12-01T00:18:03;9.90;97.70
15554;DHT22;7878;44.632;10.942;2022-12-01T00:20:33;9.90;97.80
15554;DHT22;7878;44.632;10.942;2022-12-01T00:23:00;9.90;97.80
15554;DHT22;7878;44.632;10.942;2022-12-01T00:25:26;9.90;97.70
15554;DHT22;7878;44.632;10.942;2022-12-01T00:27:52;9.90;97.70
15554;DHT22;7878;44.632;10.942;2022-12-01T00:30:19;9.90;97.70
15554;DHT22;7878;44.632;10.942;2022-12-01T00:32:45;9.90;97.70
15554;DHT22;7878;44.632;10.942;2022-12-01T00:35:12;9.90;97.70
15554;DHT22;7878;44.632;10.942;2022-12-01T00:37:38;9.80;97.60
15554;DHT22;7878;44.632;10.942;2022-12-01T00:40:05;9.80;97.70
15554;DHT22;7878;44.632;10.942;2022-12-01T00:42:31;9.80;97.60
15554;DHT22;7878;44.632;10.942;2022-12-01T00:44:57;9.90;97.70
15554;DHT22;7878;44.632;10.942;2022-12-01T00:47:23;9.90;97.70
15554;DHT22;7878;44.632;10.942;2022-12-01T00:49:48;9.90;97.70
15554;DHT22;7878;44.632;10.942;2022-12-01T00:52:15;9.90;97.50
15554;DHT22;7878;44.632;10.942;2022-12-01T00:54:42;9.80;97.60
15554;DHT22;7878;44.632;10.942;2022-12-01T00:57:07;9.80;97.60
15554;DHT22;7878;44.632;10.942;2022-12-01T00:59:33;9.80;97.60
15554;DHT22;7878;44.632;10.942;2022-12-01T01:02:00;9.90;97.60
15554;DHT22;7878;44.632;10.942;2022-12-01T01:04:29;9.90;97.60
15554;DHT22;7878;44.632;10.942;2022-12-01T01:06:55;9.90;97.50
15554;DHT22;7878;44.632;10.942;2022-12-01T01:09:20;9.90;97.60
15554;DHT22;7878;44.632;10.942;2022-12-01T01:11:46;9.90;97.50
15554;DHT22;7878;44.632;10.942;2022-12-01T01:14:12;9.80;97.50
15554;DHT22;7878;44.632;10.942;2022-12-01T01:16:38;9.80;97.40
15554;DHT22;7878;44.632;10.942;2022-12-01T01:19:03;9.90;97.50
15554;DHT22;7878;44.632;10.942;2022-12-01T01:21:29;9.90;97.50
15554;DHT22;7878;44.632;10.942;2022-12-01T01:23:55;9.90;97.50
15554;DHT22;7878;44.632;10.942;2022-12-01T01:26:27;9.90;97.40
15554;DHT22;7878;44.632;10.942;2022-12-01T01:28:55;9.90;97.30
15554;DHT22;7878;44.632;10.942;2022-12-01T01:31:23;9.90;97.40
15554;DHT22;7878;44.632;10.942;2022-12-01T01:33:49;10.00;96.90
15554;DHT22;7878;44.632;10.942;2022-12-01T01:36:16;9.90;97.30
15554;DHT22;7878;44.632;10.942;2022-12-01T01:38:43;9.90;97.30
15554;DHT22;7878;44.632;10.942;2022-12-01T01:41:10;9.90;97.30
15554;DHT22;7878;44.632;10.942;2022-12-01T01:43:57;9.90;97.40
15554;DHT22;7878;44.632;10.942;2022-12-01T01:46:31;9.90;97.40
15554;DHT22;7878;44.632;10.942;2022-12-01T01:49:06;9.90;97.40
15554;DHT22;7878;44.632;10.942;2022-12-01T01:51:37;9.90;97.40
15554;DHT22;7878;44.632;10.942;2022-12-01T01:54:13;9.90;97.20
15554;DHT22;7878;44.632;10.942;2022-12-01T01:56:44;9.80;97.30
15554;DHT22;7878;44.632;10.942;2022-12-01T01:59:14;9.80;97.20
15554;DHT22;7878;44.632;10.942;2022-12-01T02:01:41;9.90;97.30
15554;DHT22;7878;44.632;10.942;2022-12-01T02:04:06;9.90;97.30
15554;DHT22;7878;44.632;10.942;2022-12-01T02:06:32;9.90;97.20
15554;DHT22;7878;44.632;10.942;2022-12-01T02:08:58;10.00;96.70
15554;DHT22;7878;44.632;10.942;2022-12-01T02:38:48;10.00;96.50
15554;DHT22;7878;44.632;10.942;2022-12-01T02:41:23;9.90;96.70
15554;DHT22;7878;44.632;10.942;2022-12-01T02:43:59;9.90;96.90
15554;DHT22;7878;44.632;10.942;2022-12-01T02:47:08;9.90;96.90
15554;DHT22;7878;44.632;10.942;2022-12-01T02:49:40;9.90;96.70
15554;DHT22;7878;44.632;10.942;2022-12-01T02:52:08;9.90;96.90
15554;DHT22;7878;44.632;10.942;2022-12-01T02:54:36;9.90;96.70
15554;DHT22;7878;44.632;10.942;2022-12-01T02:57:02;9.90;96.70
15554;DHT22;7878;44.632;10.942;2022-12-01T02:59:27;9.90;96.70
15554;DHT22;7878;44.632;10.942;2022-12-01T03:02:09;9.90;96.70
15554;DHT22;7878;44.632;10.942;2022-12-01T03:05:04;9.80;96.60
15554;DHT22;7878;44.632;10.942;2022-12-01T03:12:54;9.80;96.70
15554;DHT22;7878;44.632;10.942;2022-12-01T03:24:14;9.80;96.60
15554;DHT22;7878;44.632;10.942;2022-12-01T03:26:44;9.80;96.70
15554;DHT22;7878;44.632;10.942;2022-12-01T03:29:17;9.80;96.70
15554;DHT22;7878;44.632;10.942;2022-12-01T03:32:42;9.80;96.80
15554;DHT22;7878;44.632;10.942;2022-12-01T03:35:11;9.80;96.70
15554;DHT22;7878;44.632;10.942;2022-12-01T03:38:01;9.80;96.70
15554;DHT22;7878;44.632;10.942;2022-12-01T03:40:30;9.90;96.60
15554;DHT22;7878;44.632;10.942;2022-12-01T03:43:00;9.90;96.70
15554;DHT22;7878;44.632;10.942;2022-12-01T03:48:19;9.90;96.70
15554;DHT22;7878;44.632;10.942;2022-12-01T03:56:08;9.80;96.70
15554;DHT22;7878;44.632;10.942;2022-12-01T03:58:43;9.80;96.60
15554;DHT22;7878;44.632;10.942;2022-12-01T04:01:11;9.80;96.60
15554;DHT22;7878;44.632;10.942;2022-12-01T04:03:37;9.70;96.50
15554;DHT22;7878;44.632;10.942;2022-12-01T04:06:03;9.70;96.60
15554;DHT22;7878;44.632;10.942;2022-12-01T04:08:29;9.70;96.70
15554;DHT22;7878;44.632;10.942;2022-12-01T04:10:55;9.70;96.70
15554;DHT22;7878;44.632;10.942;2022-12-01T04:13:21;9.70;96.70
15554;DHT22;7878;44.632;10.942;2022-12-01T04:15:52;9.60;96.60
15554;DHT22;7878;44.632;10.942;2022-12-01T04:18:18;9.60;96.50
15554;DHT22;7878;44.632;10.942;2022-12-01T04:20:47;9.60;96.60
15554;DHT22;7878;44.632;10.942;2022-12-01T04:23:14;9.60;96.60
15554;DHT22;7878;44.632;10.942;2022-12-01T04:26:01;9.60;96.60
15554;DHT22;7878;44.632;10.942;2022-12-01T04:28:27;9.60;96.60
15554;DHT22;7878;44.632;10.942;2022-12-01T04:30:53;9.60;96.60
15554;DHT22;7878;44.632;10.942;2022-12-01T04:33:19;9.60;96.70
15554;DHT22;7878;44.632;10.942;2022-12-01T04:35:45;9.50;96.60
15554;DHT22;7878;44.632;10.942;2022-12-01T04:38:10;9.50;96.60
15554;DHT22;7878;44.632;10.942;2022-12-01T04:40:39;9.50;96.60
15554;DHT22;7878;44.632;10.942;2022-12-01T04:43:04;9.60;96.70
15554;DHT22;7878;44.632;10.942;2022-12-01T04:45:30;9.50;96.70
15554;DHT22;7878;44.632;10.942;2022-12-01T04:47:56;9.40;96.70
15554;DHT22;7878;44.632;10.942;2022-12-01T04:50:21;9.40;96.70
15554;DHT22;7878;44.632;10.942;2022-12-01T04:52:47;9.40;96.70
15554;DHT22;7878;44.632;10.942;2022-12-01T04:55:13;9.40;97.10
15554;DHT22;7878;44.632;10.942;2022-12-01T04:57:40;9.40;96.70
15554;DHT22;7878;44.632;10.942;2022-12-01T05:00:06;9.40;96.70
15554;DHT22;7878;44.632;10.942;2022-12-01T05:02:38;9.40;96.80
15554;DHT22;7878;44.632;10.942;2022-12-01T05:05:04;9.50;96.80
15554;DHT22;7878;44.632;10.942;2022-12-01T05:07:31;9.50;97.30
15554;DHT22;7878;44.632;10.942;2022-12-01T05:09:57;9.50;97.50
15554;DHT22;7878;44.632;10.942;2022-12-01T05:12:23;9.60;97.80
15554;DHT22;7878;44.632;10.942;2022-12-01T05:14:48;9.60;97.10
15554;DHT22;7878;44.632;10.942;2022-12-01T05:17:14;9.60;97.00
15554;DHT22;7878;44.632;10.942;2022-12-01T05:19:40;9.60;97.10
15554;DHT22;7878;44.632;10.942;2022-12-01T05:22:24;9.60;97.00
15554;DHT22;7878;44.632;10.942;2022-12-01T05:24:49;9.60;97.00
15554;DHT22;7878;44.632;10.942;2022-12-01T05:27:15;9.70;97.10
15554;DHT22;7878;44.632;10.942;2022-12-01T05:29:41;9.70;97.10
15554;DHT22;7878;44.632;10.942;2022-12-01T05:32:06;9.70;97.00
15554;DHT22;7878;44.632;10.942;2022-12-01T05:34:32;9.70;96.90
15554;DHT22;7878;44.632;10.942;2022-12-01T05:36:57;9.70;96.80
15554;DHT22;7878;44.632;10.942;2022-12-01T05:39:23;9.70;96.80
15554;DHT22;7878;44.632;10.942;2022-12-01T05:41:49;9.70;96.80
15554;DHT22;7878;44.632;10.942;2022-12-01T05:44:14;9.60;96.80
15554;DHT22;7878;44.632;10.942;2022-12-01T05:46:40;9.60;97.00
15554;DHT22;7878;44.632;10.942;2022-12-01T05:49:06;9.60;96.90
15554;DHT22;7878;44.632;10.942;2022-12-01T05:51:31;9.60;97.00
15554;DHT22;7878;44.632;10.942;2022-12-01T05:54:00;9.60;96.80
15554;DHT22;7878;44.632;10.942;2022-12-01T05:56:26;9.50;96.80
15554;DHT22;7878;44.632;10.942;2022-12-01T05:58:51;9.50;97.00
15554;DHT22;7878;44.632;10.942;2022-12-01T06:01:17;9.50;96.90
15554;DHT22;7878;44.632;10.942;2022-12-01T06:03:43;9.50;96.80
15554;DHT22;7878;44.632;10.942;2022-12-01T06:06:08;9.40;96.70
15554;DHT22;7878;44.632;10.942;2022-12-01T06:08:34;9.40;97.00
15554;DHT22;7878;44.632;10.942;2022-12-01T06:11:00;9.40;97.40
15554;DHT22;7878;44.632;10.942;2022-12-01T06:13:25;9.50;97.40
15554;DHT22;7878;44.632;10.942;2022-12-01T06:15:58;9.50;97.30
15554;DHT22;7878;44.632;10.942;2022-12-01T06:18:25;9.60;97.30
15554;DHT22;7878;44.632;10.942;2022-12-01T06:20:51;9.60;97.10
15554;DHT22;7878;44.632;10.942;2022-12-01T06:23:17;9.60;97.10
15554;DHT22;7878;44.632;10.942;2022-12-01T06:25:42;9.60;96.80
15554;DHT22;7878;44.632;10.942;2022-12-01T06:28:08;9.50;97.10
15554;DHT22;7878;44.632;10.942;2022-12-01T06:30:33;9.50;97.10
15554;DHT22;7878;44.632;10.942;2022-12-01T06:32:59;9.50;97.10
15554;DHT22;7878;44.632;10.942;2022-12-01T06:35:25;9.50;97.20
15554;DHT22;7878;44.632;10.942;2022-12-01T06:37:52;9.50;97.20
15554;DHT22;7878;44.632;10.942;2022-12-01T06:40:18;9.60;97.10
15554;DHT22;7878;44.632;10.942;2022-12-01T06:42:44;9.60;97.10
15554;DHT22;7878;44.632;10.942;2022-12-01T06:45:11;9.60;97.10
15554;DHT22;7878;44.632;10.942;2022-12-01T06:47:37;9.60;97.20
15554;DHT22;7878;44.632;10.942;2022-12-01T06:50:03;9.70;97.30
15554;DHT22;7878;44.632;10.942;2022-12-01T06:52:33;9.60;97.30
15554;DHT22;7878;44.632;10.942;2022-12-01T06:54:58;9.60;97.10
15554;DHT22;7878;44.632;10.942;2022-12-01T06:57:25;9.60;97.10
15554;DHT22;7878;44.632;10.942;2022-12-01T06:59:50;9.60;97.20
15554;DHT22;7878;44.632;10.942;2022-12-01T07:02:16;9.60;97.30
15554;DHT22;7878;44.632;10.942;2022-12-01T07:04:42;9.60;97.20
15554;DHT22;7878;44.632;10.942;2022-12-01T07:07:07;9.60;97.10
15554;DHT22;7878;44.632;10.942;2022-12-01T07:09:33;9.70;97.40
15554;DHT22;7878;44.632;10.942;2022-12-01T07:11:59;9.70;97.60
15554;DHT22;7878;44.632;10.942;2022-12-01T07:14:25;9.70;97.30
15554;DHT22;7878;44.632;10.942;2022-12-01T07:16:51;9.70;97.30
15554;DHT22;7878;44.632;10.942;2022-12-01T07:19:17;9.70;97.30
15554;DHT22;7878;44.632;10.942;2022-12-01T07:21:43;9.70;97.20
15554;DHT22;7878;44.632;10.942;2022-12-01T07:24:09;9.80;97.30
15554;DHT22;7878;44.632;10.942;2022-12-01T07:26:37;9.90;97.40
15554;DHT22;7878;44.632;10.942;2022-12-01T07:29:02;9.90;97.20
15554;DHT22;7878;44.632;10.942;2022-12-01T07:31:28;9.90;96.90
15554;DHT22;7878;44.632;10.942;2022-12-01T07:33:54;10.00;96.50
15554;DHT22;7878;44.632;10.942;2022-12-01T07:36:19;10.00;96.60
15554;DHT22;7878;44.632;10.942;2022-12-01T07:38:45;10.10;96.50
15554;DHT22;7878;44.632;10.942;2022-12-01T07:41:14;10.10;96.50
15554;DHT22;7878;44.632;10.942;2022-12-01T07:43:41;10.20;96.50
15554;DHT22;7878;44.632;10.942;2022-12-01T07:46:15;10.20;96.30
15554;DHT22;7878;44.632;10.942;2022-12-01T07:48:41;10.20;96.10
15554;DHT22;7878;44.632;10.942;2022-12-01T07:51:09;10.20;96.20
15554;DHT22;7878;44.632;10.942;2022-12-01T07:53:35;10.30;96.30
15554;DHT22;7878;44.632;10.942;2022-12-01T07:56:01;10.40;96.50
15554;DHT22;7878;44.632;10.942;2022-12-01T07:58:27;10.40;96.30
15554;DHT22;7878;44.632;10.942;2022-12-01T08:00:54;10.50;96.10
15554;DHT22;7878;44.632;10.942;2022-12-01T08:03:19;10.50;96.00
15554;DHT22;7878;44.632;10.942;2022-12-01T08:05:54;10.50;96.00
15554;DHT22;7878;44.632;10.942;2022-12-01T08:08:20;10.60;95.90
15554;DHT22;7878;44.632;10.942;2022-12-01T08:10:45;10.60;95.80
15554;DHT22;7878;44.632;10.942;2022-12-01T08:13:11;10.60;95.60
15554;DHT22;7878;44.632;10.942;2022-12-01T08:15:36;10.60;95.60
15554;DHT22;7878;44.632;10.942;2022-12-01T08:18:02;10.60;95.60
15554;DHT22;7878;44.632;10.942;2022-12-01T08:20:28;10.60;95.60
15554;DHT22;7878;44.632;10.942;2022-12-01T08:22:53;10.70;95.70
15554;DHT22;7878;44.632;10.942;2022-12-01T08:25:19;10.80;95.70
15554;DHT22;7878;44.632;10.942;2022-12-01T08:27:44;10.90;95.70
15554;DHT22;7878;44.632;10.942;2022-12-01T08:30:10;11.10;95.60
15554;DHT22;7878;44.632;10.942;2022-12-01T08:32:36;11.30;95.40
15554;DHT22;7878;44.632;10.942;2022-12-01T08:35:02;11.50;95.40
15554;DHT22;7878;44.632;10.942;2022-12-01T08:37:28;11.60;95.00
15554;DHT22;7878;44.632;10.942;2022-12-01T08:39:53;11.60;94.80
15554;DHT22;7878;44.632;10.942;2022-12-01T08:42:19;11.60;94.90
15554;DHT22;7878;44.632;10.942;2022-12-01T08:44:45;11.60;94.80
15554;DHT22;7878;44.632;10.942;2022-12-01T08:47:11;11.70;94.80
15554;DHT22;7878;44.632;10.942;2022-12-01T08:49:36;11.70;94.90
15554;DHT22;7878;44.632;10.942;2022-12-01T08:52:02;11.70;94.80
15554;DHT22;7878;44.632;10.942;2022-12-01T08:54:28;11.70;95.00
15554;DHT22;7878;44.632;10.942;2022-12-01T08:56:54;11.70;95.10
15554;DHT22;7878;44.632;10.942;2022-12-01T08:59:19;11.70;95.20
15554;DHT22;7878;44.632;10.942;2022-12-01T09:01:45;11.80;95.10
15554;DHT22;7878;44.632;10.942;2022-12-01T09:04:22;11.70;94.90
15554;DHT22;7878;44.632;10.942;2022-12-01T09:06:50;11.70;95.10
15554;DHT22;7878;44.632;10.942;2022-12-01T09:09:25;11.70;95.30
15554;DHT22;7878;44.632;10.942;2022-12-01T09:11:52;11.80;95.10
15554;DHT22;7878;44.632;10.942;2022-12-01T09:14:19;11.80;95.00
15554;DHT22;7878;44.632;10.942;2022-12-01T09:16:46;11.70;95.10
15554;DHT22;7878;44.632;10.942;2022-12-01T09:19:15;11.60;95.00
15554;DHT22;7878;44.632;10.942;2022-12-01T09:21:43;11.50;95.20
15554;DHT22;7878;44.632;10.942;2022-12-01T09:24:13;11.50;95.20
15554;DHT22;7878;44.632;10.942;2022-12-01T09:26:40;11.40;95.00
15554;DHT22;7878;44.632;10.942;2022-12-01T09:29:09;11.40;95.20
15554;DHT22;7878;44.632;10.942;2022-12-01T09:31:35;11.40;95.30
15554;DHT22;7878;44.632;10.942;2022-12-01T09:34:06;11.30;95.00
15554;DHT22;7878;44.632;10.942;2022-12-01T09:36:33;11.30;94.90
15554;DHT22;7878;44.632;10.942;2022-12-01T09:38:59;11.20;94.80
15554;DHT22;7878;44.632;10.942;2022-12-01T09:41:50;11.20;94.90
15554;DHT22;7878;44.632;10.942;2022-12-01T09:44:44;11.20;94.80
15554;DHT22;7878;44.632;10.942;2022-12-01T09:47:25;11.30;94.70
15554;DHT22;7878;44.632;10.942;2022-12-01T09:49:58;11.30;94.90
15554;DHT22;7878;44.632;10.942;2022-12-01T09:52:27;11.40;94.90
15554;DHT22;7878;44.632;10.942;2022-12-01T09:54:54;11.50;95.10
15554;DHT22;7878;44.632;10.942;2022-12-01T09:59:51;11.90;94.80
15554;DHT22;7878;44.632;10.942;2022-12-01T10:02:29;12.10;94.80
15554;DHT22;7878;44.632;10.942;2022-12-01T10:05:02;12.40;94.60
15554;DHT22;7878;44.632;10.942;2022-12-01T10:07:32;12.70;94.50
15554;DHT22;7878;44.632;10.942;2022-12-01T10:10:27;13.20;94.50
15554;DHT22;7878;44.632;10.942;2022-12-01T10:12:51;13.60;94.30
15554;DHT22;7878;44.632;10.942;2022-12-01T10:18:09;15.00;93.70
15554;DHT22;7878;44.632;10.942;2022-12-01T10:20:56;15.30;92.30
15554;DHT22;7878;44.632;10.942;2022-12-01T10:34:59;15.70;91.70
15554;DHT22;7878;44.632;10.942;2022-12-01T10:37:27;15.10;92.40
15554;DHT22;7878;44.632;10.942;2022-12-01T10:39:55;14.80;92.40
15554;DHT22;7878;44.632;10.942;2022-12-01T10:42:35;14.60;92.70
15554;DHT22;7878;44.632;10.942;2022-12-01T10:45:05;14.50;92.40
15554;DHT22;7878;44.632;10.942;2022-12-01T10:47:31;14.40;93.10
15554;DHT22;7878;44.632;10.942;2022-12-01T10:49:57;14.50;93.20
15554;DHT22;7878;44.632;10.942;2022-12-01T10:52:35;14.70;92.50
15554;DHT22;7878;44.632;10.942;2022-12-01T10:57:46;14.80;92.60
15554;DHT22;7878;44.632;10.942;2022-12-01T11:00:24;14.60;93.00
15554;DHT22;7878;44.632;10.942;2022-12-01T11:02:50;14.40;92.20
15554;DHT22;7878;44.632;10.942;2022-12-01T11:05:25;14.30;92.90
15554;DHT22;7878;44.632;10.942;2022-12-01T11:07:52;14.40;92.60
15554;DHT22;7878;44.632;10.942;2022-12-01T11:10:36;14.20;92.80
15554;DHT22;7878;44.632;10.942;2022-12-01T11:18:28;14.10;93.10
15554;DHT22;7878;44.632;10.942;2022-12-01T11:21:15;13.90;93.30
15554;DHT22;7878;44.632;10.942;2022-12-01T11:23:51;13.80;92.80
15554;DHT22;7878;44.632;10.942;2022-12-01T11:26:35;13.60;93.60
15554;DHT22;7878;44.632;10.942;2022-12-01T11:29:02;13.50;93.10
15554;DHT22;7878;44.632;10.942;2022-12-01T11:31:47;13.40;93.80
15554;DHT22;7878;44.632;10.942;2022-12-01T11:34:20;13.40;93.60
15554;DHT22;7878;44.632;10.942;2022-12-01T11:36:50;13.20;93.50
15554;DHT22;7878;44.632;10.942;2022-12-01T11:39:33;13.10;93.70
15554;DHT22;7878;44.632;10.942;2022-12-01T11:42:03;12.90;93.60
15554;DHT22;7878;44.632;10.942;2022-12-01T11:44:31;12.90;94.10
15554;DHT22;7878;44.632;10.942;2022-12-01T11:47:56;12.80;93.70
15554;DHT22;7878;44.632;10.942;2022-12-01T11:50:24;12.60;93.70
15554;DHT22;7878;44.632;10.942;2022-12-01T11:52:50;12.60;93.70
15554;DHT22;7878;44.632;10.942;2022-12-01T11:57:47;12.60;94.30
15554;DHT22;7878;44.632;10.942;2022-12-01T12:00:24;12.70;93.90
15554;DHT22;7878;44.632;10.942;2022-12-01T12:06:02;12.80;93.70
15554;DHT22;7878;44.632;10.942;2022-12-01T12:08:58;12.90;94.00
15554;DHT22;7878;44.632;10.942;2022-12-01T12:25:19;13.60;93.30
15554;DHT22;7878;44.632;10.942;2022-12-01T12:27:51;13.60;93.30
15554;DHT22;7878;44.632;10.942;2022-12-01T12:30:23;13.60;93.40
15554;DHT22;7878;44.632;10.942;2022-12-01T12:38:07;13.80;93.60
15554;DHT22;7878;44.632;10.942;2022-12-01T12:40:41;13.70;93.30
15554;DHT22;7878;44.632;10.942;2022-12-01T12:43:35;13.70;93.70
15554;DHT22;7878;44.632;10.942;2022-12-01T12:51:34;14.00;93.60
15554;DHT22;7878;44.632;10.942;2022-12-01T12:54:24;14.00;93.00
15554;DHT22;7878;44.632;10.942;2022-12-01T12:56:59;14.00;93.00
15554;DHT22;7878;44.632;10.942;2022-12-01T12:59:36;13.90;93.20
15554;DHT22;7878;44.632;10.942;2022-12-01T13:02:38;14.00;92.60
15554;DHT22;7878;44.632;10.942;2022-12-01T13:05:08;14.30;91.70
15554;DHT22;7878;44.632;10.942;2022-12-01T13:10:41;14.40;92.00
15554;DHT22;7878;44.632;10.942;2022-12-01T13:15:41;15.10;91.80
15554;DHT22;7878;44.632;10.942;2022-12-01T13:18:18;15.10;91.40
15554;DHT22;7878;44.632;10.942;2022-12-01T13:20:51;15.00;91.70
15554;DHT22;7878;44.632;10.942;2022-12-01T13:23:18;14.80;91.70
15554;DHT22;7878;44.632;10.942;2022-12-01T13:25:49;14.50;91.90
15554;DHT22;7878;44.632;10.942;2022-12-01T13:28:25;14.40;92.10
15554;DHT22;7878;44.632;10.942;2022-12-01T13:31:05;14.30;92.00
15554;DHT22;7878;44.632;10.942;2022-12-01T13:33:32;14.20;92.20
15554;DHT22;7878;44.632;10.942;2022-12-01T13:35:58;14.20;92.80
15554;DHT22;7878;44.632;10.942;2022-12-01T13:38:30;14.20;92.80
15554;DHT22;7878;44.632;10.942;2022-12-01T13:43:36;14.20;92.00
15554;DHT22;7878;44.632;10.942;2022-12-01T13:46:23;14.10;93.00
15554;DHT22;7878;44.632;10.942;2022-12-01T13:48:52;14.10;92.30
15554;DHT22;7878;44.632;10.942;2022-12-01T13:51:18;14.00;92.60
15554;DHT22;7878;44.632;10.942;2022-12-01T13:58:49;13.80;93.00
15554;DHT22;7878;44.632;10.942;2022-12-01T14:06:28;13.50;92.60
15554;DHT22;7878;44.632;10.942;2022-12-01T14:09:14;13.50;93.00
15554;DHT22;7878;44.632;10.942;2022-12-01T14:12:15;13.40;92.80
15554;DHT22;7878;44.632;10.942;2022-12-01T14:14:43;13.40;92.40
15554;DHT22;7878;44.632;10.942;2022-12-01T14:17:41;13.30;93.10
15554;DHT22;7878;44.632;10.942;2022-12-01T14:22:38;13.10;93.10
15554;DHT22;7878;44.632;10.942;2022-12-01T14:27:47;13.00;92.70
15554;DHT22;7878;44.632;10.942;2022-12-01T14:36:41;12.80;92.70
15554;DHT22;7878;44.632;10.942;2022-12-01T14:39:17;12.70;92.40
15554;DHT22;7878;44.632;10.942;2022-12-01T14:44:34;12.60;93.10
15554;DHT22;7878;44.632;10.942;2022-12-01T14:49:51;12.50;93.20
15554;DHT22;7878;44.632;10.942;2022-12-01T14:53:00;12.40;93.00
15554;DHT22;7878;44.632;10.942;2022-12-01T14:55:22;12.30;93.10
15554;DHT22;7878;44.632;10.942;2022-12-01T14:57:51;12.30;93.30
15554;DHT22;7878;44.632;10.942;2022-12-01T15:00:22;12.20;93.40
15554;DHT22;7878;44.632;10.942;2022-12-01T15:02:59;12.10;93.30
15554;DHT22;7878;44.632;10.942;2022-12-01T15:05:28;12.10;93.50
15554;DHT22;7878;44.632;10.942;2022-12-01T15:07:57;12.00;93.70
15554;DHT22;7878;44.632;10.942;2022-12-01T15:10:32;12.00;93.70
15554;DHT22;7878;44.632;10.942;2022-12-01T15:16:00;11.90;93.70
15554;DHT22;7878;44.632;10.942;2022-12-01T15:18:31;11.80;93.80
15554;DHT22;7878;44.632;10.942;2022-12-01T15:23:29;11.70;94.20
15554;DHT22;7878;44.632;10.942;2022-12-01T15:25:55;11.70;94.30
15554;DHT22;7878;44.632;10.942;2022-12-01T15:28:29;11.60;94.20
15554;DHT22;7878;44.632;10.942;2022-12-01T15:30:56;11.60;94.20
15554;DHT22;7878;44.632;10.942;2022-12-01T15:33:31;11.50;94.20
15554;DHT22;7878;44.632;10.942;2022-12-01T15:35:58;11.50;94.20
15554;DHT22;7878;44.632;10.942;2022-12-01T15:38:28;11.40;94.10
15554;DHT22;7878;44.632;10.942;2022-12-01T15:40:55;11.40;94.30
15554;DHT22;7878;44.632;10.942;2022-12-01T15:43:25;11.30;94.30
15554;DHT22;7878;44.632;10.942;2022-12-01T15:46:00;11.30;94.30
15554;DHT22;7878;44.632;10.942;2022-12-01T15:48:27;11.20;94.50
15554;DHT22;7878;44.632;10.942;2022-12-01T15:51:35;11.20;94.50
15554;DHT22;7878;44.632;10.942;2022-12-01T15:53:55;11.20;94.40
15554;DHT22;7878;44.632;10.942;2022-12-01T15:56:37;11.10;94.60
15554;DHT22;7878;44.632;10.942;2022-12-01T16:01:39;11.00;94.70
15554;DHT22;7878;44.632;10.942;2022-12-01T16:07:16;10.90;94.90
15554;DHT22;7878;44.632;10.942;2022-12-01T16:09:56;11.00;95.10
15554;DHT22;7878;44.632;10.942;2022-12-01T16:12:26;11.00;95.00
15554;DHT22;7878;44.632;10.942;2022-12-01T16:17:24;11.00;95.10
15554;DHT22;7878;44.632;10.942;2022-12-01T16:22:54;11.00;95.20
15554;DHT22;7878;44.632;10.942;2022-12-01T16:25:42;11.00;95.20
15554;DHT22;7878;44.632;10.942;2022-12-01T16:28:33;11.00;95.30
15554;DHT22;7878;44.632;10.942;2022-12-01T16:31:05;11.10;95.40
15554;DHT22;7878;44.632;10.942;2022-12-01T16:33:36;11.10;95.30
15554;DHT22;7878;44.632;10.942;2022-12-01T16:36:04;11.00;95.30
15554;DHT22;7878;44.632;10.942;2022-12-01T16:38:30;11.00;95.40
15554;DHT22;7878;44.632;10.942;2022-12-01T16:40:58;11.00;95.40
15554;DHT22;7878;44.632;10.942;2022-12-01T16:43:26;11.00;95.50
15554;DHT22;7878;44.632;10.942;2022-12-01T16:46:00;11.00;95.70
15554;DHT22;7878;44.632;10.942;2022-12-01T16:48:27;11.10;95.80
15554;DHT22;7878;44.632;10.942;2022-12-01T16:50:53;11.10;95.80
15554;DHT22;7878;44.632;10.942;2022-12-01T16:53:19;11.10;95.80
15554;DHT22;7878;44.632;10.942;2022-12-01T16:55:56;11.10;95.90
15554;DHT22;7878;44.632;10.942;2022-12-01T16:58:22;11.10;96.00
15554;DHT22;7878;44.632;10.942;2022-12-01T17:00:48;11.10;96.00
15554;DHT22;7878;44.632;10.942;2022-12-01T17:03:22;11.10;96.00
15554;DHT22;7878;44.632;10.942;2022-12-01T17:05:49;11.10;96.00
15554;DHT22;7878;44.632;10.942;2022-12-01T17:08:15;11.00;96.00
15554;DHT22;7878;44.632;10.942;2022-12-01T17:10:43;11.00;96.10
15554;DHT22;7878;44.632;10.942;2022-12-01T17:13:09;11.00;96.10
15554;DHT22;7878;44.632;10.942;2022-12-01T17:15:42;10.90;96.10
15554;DHT22;7878;44.632;10.942;2022-12-01T17:18:09;10.90;96.30
15554;DHT22;7878;44.632;10.942;2022-12-01T17:20:34;10.90;96.30
15554;DHT22;7878;44.632;10.942;2022-12-01T17:23:00;10.90;96.30
15554;DHT22;7878;44.632;10.942;2022-12-01T17:25:26;10.90;96.40
15554;DHT22;7878;44.632;10.942;2022-12-01T17:27:51;10.90;96.50
15554;DHT22;7878;44.632;10.942;2022-12-01T17:30:17;10.90;96.50
15554;DHT22;7878;44.632;10.942;2022-12-01T17:32:43;10.80;96.60
15554;DHT22;7878;44.632;10.942;2022-12-01T17:35:10;10.80;96.60
15554;DHT22;7878;44.632;10.942;2022-12-01T17:37:36;10.80;96.70
15554;DHT22;7878;44.632;10.942;2022-12-01T17:40:04;10.70;96.80
15554;DHT22;7878;44.632;10.942;2022-12-01T17:42:30;10.80;96.80
15554;DHT22;7878;44.632;10.942;2022-12-01T17:44:57;10.80;96.80
15554;DHT22;7878;44.632;10.942;2022-12-01T17:47:23;10.80;96.80
15554;DHT22;7878;44.632;10.942;2022-12-01T17:49:49;10.80;96.80
15554;DHT22;7878;44.632;10.942;2022-12-01T17:52:15;10.80;96.80
15554;DHT22;7878;44.632;10.942;2022-12-01T17:54:40;10.80;96.80
15554;DHT22;7878;44.632;10.942;2022-12-01T17:57:06;10.80;96.80
15554;DHT22;7878;44.632;10.942;2022-12-01T17:59:33;10.80;96.90
15554;DHT22;7878;44.632;10.942;2022-12-01T18:01:58;10.90;96.90
15554;DHT22;7878;44.632;10.942;2022-12-01T18:04:24;10.80;96.90
15554;DHT22;7878;44.632;10.942;2022-12-01T18:06:50;10.90;97.10
15554;DHT22;7878;44.632;10.942;2022-12-01T18:09:16;10.80;97.00
15554;DHT22;7878;44.632;10.942;2022-12-01T18:11:42;10.80;97.20
15554;DHT22;7878;44.632;10.942;2022-12-01T18:14:07;10.80;97.20
15554;DHT22;7878;44.632;10.942;2022-12-01T18:16:33;10.90;97.20
15554;DHT22;7878;44.632;10.942;2022-12-01T18:19:00;10.90;97.30
15554;DHT22;7878;44.632;10.942;2022-12-01T18:21:26;10.90;97.30
15554;DHT22;7878;44.632;10.942;2022-12-01T18:24:00;10.90;97.30
15554;DHT22;7878;44.632;10.942;2022-12-01T18:26:28;11.00;98.70
15554;DHT22;7878;44.632;10.942;2022-12-01T18:28:55;11.00;97.70
15554;DHT22;7878;44.632;10.942;2022-12-01T18:31:21;11.00;97.50